sensor_id;sensor_type;location;lat;lon;timestamp;temperature;humidity
28010;DHT22;15334;49.494;8.410;2022-07-29T00:00:02;21.50;92.80
28010;DHT22;15334;49.494;8.410;2022-07-29T00:02:30;21.50;92.80
28010;DHT22;15334;49.494;8.410;2022-07-29T00:04:59;21.50;93.40
28010;DHT22;15334;49.494;8.410;2022-07-29T00:07:27;21.40;93.80
28010;DHT22;15334;49.494;8.410;2022-07-29T00:09:55;21.40;94.30
28010;DHT22;15334;49.494;8.410;2022-07-29T00:12:25;21.40;94.10
28010;DHT22;15334;49.494;8.410;2022-07-29T00:14:56;21.40;94.20
28010;DHT22;15334;49.494;8.410;2022-07-29T00:17:24;21.40;93.70
28010;DHT22;15334;49.494;8.410;2022-07-29T00:19:52;21.40;93.30
28010;DHT22;15334;49.494;8.410;2022-07-29T00:22:20;21.40;93.10
28010;DHT22;15334;49.494;8.410;2022-07-29T00:24:49;21.40;93.20
28010;DHT22;15334;49.494;8.410;2022-07-29T00:27:17;21.30;93.40
28010;DHT22;15334;49.494;8.410;2022-07-29T00:29:47;21.30;93.10
28010;DHT22;15334;49.494;8.410;2022-07-29T00:32:15;21.40;92.60
28010;DHT22;15334;49.494;8.410;2022-07-29T00:34:43;21.40;92.60
28010;DHT22;15334;49.494;8.410;2022-07-29T00:37:28;21.40;92.60
28010;DHT22;15334;49.494;8.410;2022-07-29T00:39:56;21.50;92.20
28010;DHT22;15334;49.494;8.410;2022-07-29T00:42:27;21.50;92.00
28010;DHT22;15334;49.494;8.410;2022-07-29T00:44:56;21.50;92.40
28010;DHT22;15334;49.494;8.410;2022-07-29T00:47:24;21.60;92.40
28010;DHT22;15334;49.494;8.410;2022-07-29T00:49:52;21.50;92.00
28010;DHT22;15334;49.494;8.410;2022-07-29T21:03:33;23.60;99.90
28010;DHT22;15334;49.494;8.410;2022-07-29T21:06:02;23.40;99.90
28010;DHT22;15334;49.494;8.410;2022-07-29T21:08:30;23.30;99.90
28010;DHT22;15334;49.494;8.410;2022-07-29T21:10:58;23.30;99.90
28010;DHT22;15334;49.494;8.410;2022-07-29T21:13:26;23.20;99.90
28010;DHT22;15334;49.494;8.410;2022-07-29T21:15:55;23.10;99.90
28010;DHT22;15334;49.494;8.410;2022-07-29T21:18:30;22.90;99.90
28010;DHT22;15334;49.494;8.410;2022-07-29T21:21:07;22.80;99.90
28010;DHT22;15334;49.494;8.410;2022-07-29T21:23:51;22.70;99.90
28010;DHT22;15334;49.494;8.410;2022-07-29T21:26:20;22.70;99.90
28010;DHT22;15334;49.494;8.410;2022-07-29T21:29:08;22.70;99.90
28010;DHT22;15334;49.494;8.410;2022-07-29T21:31:46;22.70;99.90
28010;DHT22;15334;49.494;8.410;2022-07-29T21:34:19;22.70;99.90
28010;DHT22;15334;49.494;8.410;2022-07-29T21:37:13;22.70;99.90
28010;DHT22;15334;49.494;8.410;2022-07-29T21:40:09;22.60;99.90
28010;DHT22;15334;49.494;8.410;2022-07-29T21:42:43;22.50;99.90
28010;DHT22;15334;49.494;8.410;2022-07-29T21:45:25;22.40;99.90
28010;DHT22;15334;49.494;8.410;2022-07-29T21:48:12;22.40;99.90
28010;DHT22;15334;49.494;8.410;2022-07-29T21:50:40;22.40;99.90
28010;DHT22;15334;49.494;8.410;2022-07-29T21:53:24;22.40;99.90
28010;DHT22;15334;49.494;8.410;2022-07-29T21:56:07;22.40;99.90
28010;DHT22;15334;49.494;8.410;2022-07-29T21:59:01;22.50;99.90
28010;DHT22;15334;49.494;8.410;2022-07-29T22:01:52;22.50;99.90
28010;DHT22;15334;49.494;8.410;2022-07-29T22:04:49;22.50;99.90
28010;DHT22;15334;49.494;8.410;2022-07-29T22:07:21;22.40;99.90
28010;DHT22;15334;49.494;8.410;2022-07-29T22:09:55;22.50;99.90
28010;DHT22;15334;49.494;8.410;2022-07-29T22:12:35;22.50;99.90
28010;DHT22;15334;49.494;8.410;2022-07-29T22:15:26;22.50;99.90
28010;DHT22;15334;49.494;8.410;2022-07-29T22:18:16;22.50;99.90
28010;DHT22;15334;49.494;8.410;2022-07-29T22:21:12;22.50;99.90
28010;DHT22;15334;49.494;8.410;2022-07-29T22:24:01;22.40;99.90
28010;DHT22;15334;49.494;8.410;2022-07-29T22:26:37;22.50;99.90
28010;DHT22;15334;49.494;8.410;2022-07-29T22:29:12;22.60;99.90
28010;DHT22;15334;49.494;8.410;2022-07-29T22:31:59;22.60;99.90
28010;DHT22;15334;49.494;8.410;2022-07-29T22:34:42;22.40;99.90
28010;DHT22;15334;49.494;8.410;2022-07-29T22:37:20;22.20;99.90
28010;DHT22;15334;49.494;8.410;2022-07-29T22:40:04;22.20;99.90
28010;DHT22;15334;49.494;8.410;2022-07-29T22:42:36;22.20;99.90
28010;DHT22;15334;49.494;8.410;2022-07-29T22:45:15;22.20;99.90
28010;DHT22;15334;49.494;8.410;2022-07-29T22:48:17;22.20;99.90
28010;DHT22;15334;49.494;8.410;2022-07-29T22:50:56;22.20;99.90
28010;DHT22;15334;49.494;8.410;2022-07-29T22:53:32;22.20;99.90
28010;DHT22;15334;49.494;8.410;2022-07-29T22:56:30;22.10;99.90
28010;DHT22;15334;49.494;8.410;2022-07-29T22:59:29;22.10;99.90
28010;DHT22;15334;49.494;8.410;2022-07-29T23:02:08;22.00;99.90
28010;DHT22;15334;49.494;8.410;2022-07-29T23:04:39;22.00;99.90
28010;DHT22;15334;49.494;8.410;2022-07-29T23:08:10;22.00;99.90
28010;DHT22;15334;49.494;8.410;2022-07-29T23:11:18;22.00;99.90
28010;DHT22;15334;49.494;8.410;2022-07-29T23:13:51;22.00;99.90
28010;DHT22;15334;49.494;8.410;2022-07-29T23:16:21;22.00;99.90
28010;DHT22;15334;49.494;8.410;2022-07-29T23:18:52;22.00;99.90
28010;DHT22;15334;49.494;8.410;2022-07-29T23:21:25;22.10;99.90
28010;DHT22;15334;49.494;8.410;2022-07-29T23:23:54;22.10;99.90
28010;DHT22;15334;49.494;8.410;2022-07-29T23:26:22;22.00;99.90
28010;DHT22;15334;49.494;8.410;2022-07-29T23:28:50;22.10;99.90
28010;DHT22;15334;49.494;8.410;2022-07-29T23:31:18;22.00;99.90
28010;DHT22;15334;49.494;8.410;2022-07-29T23:33:48;22.00;99.90
28010;DHT22;15334;49.494;8.410;2022-07-29T23:36:16;21.90;99.90
28010;DHT22;15334;49.494;8.410;2022-07-29T23:38:45;21.90;99.90
28010;DHT22;15334;49.494;8.410;2022-07-29T23:41:14;21.90;99.90
28010;DHT22;15334;49.494;8.410;2022-07-29T23:43:42;21.90;99.90
28010;DHT22;15334;49.494;8.410;2022-07-29T23:46:10;21.90;99.90
28010;DHT22;15334;49.494;8.410;2022-07-29T23:48:41;21.90;99.90
28010;DHT22;15334;49.494;8.410;2022-07-29T23:51:10;21.80;99.90
28010;DHT22;15334;49.494;8.410;2022-07-29T23:53:38;21.70;99.90
28010;DHT22;15334;49.494;8.410;2022-07-29T23:56:20;21.60;99.90
28010;DHT22;15334;49.494;8.410;2022-07-29T23:58:48;21.60;99.90
